Capitol Logistics 414


KRFD
Chicago/Rockford International Airport
Rockford, Illinois, US
KSMF
Sacramento International Airport
Sacramento, California, US

Route Details

Aircraft Information
Primary: Boeing 757-200SF
Backup: Boeing 737-800BCF
Route Data
Distance: 1511nm
Sched. Duration: 4h 09m
Avg. Duration: 3h 83m (-26m)
Times Flown: 5
Recm'd Route: DBQ J94 BFF J157 LAR TCH J154 BAM J94 LLC ANAHO SLMMR3
Planned Altitude: 36,000ft
Origin Wx: KRFD 030354Z 02015G20KT 10SM SCT055 OVC250 25/15 A2991 RMK AO2 SLP123 T02500150
Dest. Wx: KSMF 030353Z 00000KT 10SM CLR 28/13 A2990 RMK AO2 SLP123 T02780133
Notes:

Financial History
Total Freight: 275,858lbs
Average Load: 55,172lbs/flt
Fuel Used: 149,450lbs
Avg. Fuel Used: 29,890lbs/flt
Fuel Expense: $100,418
Avg. Fuel Expense: $20,084
Avg. Fuel Cost: $0.67/lbs
Total Gross Income: $358,615
Pilot Pay: $745
Total Expenses: $38,990
Total Revenue: $214,639
Average Revenue: $71,723.08